Time;durP1;ratioP1;P1;durP2;ratioP2;P2;SDS_P1;SDS_P2;PMS_P1;PMS_P2;Temp;Humidity;BMP_temperature;BMP_pressure;BME280_temperature;BME280_humidity;BME280_pressure;Samples;Min_cycle;Max_cycle;Signal;HPM_P1;HPM_P2
2022/04/20 00:02:07;;;;;;;2.33;1.90;;;7.80;48.90;;;;;;5093361;28;20204;-60
2022/04/20 00:04:34;;;;;;;3.33;2.92;;;7.80;49.10;;;;;;5092947;28;20200;-59
2022/04/20 00:07:03;;;;;;;2.45;2.25;;;7.70;49.20;;;;;;5093132;28;20224;-59
2022/04/20 00:09:30;;;;;;;2.13;1.92;;;7.70;49.50;;;;;;5092998;28;20200;-59
2022/04/20 00:11:57;;;;;;;3.40;1.90;;;7.70;49.70;;;;;;5093363;28;20207;-60
2022/04/20 00:14:24;;;;;;;2.25;2.05;;;7.60;49.90;;;;;;5092873;28;20224;-60
2022/04/20 00:16:51;;;;;;;2.15;1.95;;;7.60;50.10;;;;;;5093221;28;20588;-59
2022/04/20 00:19:18;;;;;;;2.25;2.05;;;7.60;50.30;;;;;;5093043;28;20196;-59
2022/04/20 00:21:45;;;;;;;2.95;2.42;;;7.50;50.40;;;;;;5094339;28;20211;-59
2022/04/20 00:24:14;;;;;;;2.30;2.10;;;7.50;50.60;;;;;;5096069;28;20192;-60
2022/04/20 00:26:41;;;;;;;4.25;2.22;;;7.40;50.70;;;;;;5099462;28;20232;-59
2022/04/20 00:29:08;;;;;;;2.90;1.80;;;7.40;50.90;;;;;;5099130;28;20207;-59
2022/04/20 00:31:35;;;;;;;3.10;1.88;;;7.40;51.10;;;;;;5097293;28;20272;-60
2022/04/20 00:34:02;;;;;;;2.67;1.80;;;7.40;51.30;;;;;;5097209;28;20223;-60
2022/04/20 00:36:29;;;;;;;2.35;1.63;;;7.30;51.50;;;;;;5097279;28;20232;-59
2022/04/20 00:38:56;;;;;;;3.30;1.90;;;7.30;51.60;;;;;;5097060;28;20204;-60
2022/04/20 00:41:25;;;;;;;3.00;2.13;;;7.30;51.80;;;;;;5097021;28;20680;-60
2022/04/20 00:43:52;;;;;;;2.42;2.03;;;7.20;52.10;;;;;;5096980;28;20200;-59
2022/04/20 00:46:20;;;;;;;2.45;1.80;;;7.10;52.30;;;;;;5097064;28;20231;-59
2022/04/20 00:48:49;;;;;;;2.10;1.90;;;7.10;52.60;;;;;;5096837;28;20200;-59
2022/04/20 00:51:16;;;;;;;3.10;2.03;;;7.00;52.90;;;;;;5097045;28;20208;-59
2022/04/20 00:53:43;;;;;;;3.70;2.00;;;7.00;53.20;;;;;;5096863;28;20219;-59
2022/04/20 00:56:10;;;;;;;2.65;2.10;;;6.90;53.30;;;;;;5096934;28;20227;-60
2022/04/20 00:58:41;;;;;;;2.70;1.80;;;6.90;53.60;;;;;;5096545;28;20216;-59
2022/04/20 01:01:09;;;;;;;2.97;2.30;;;6.90;53.80;;;;;;5096661;28;20184;-60
2022/04/20 01:03:36;;;;;;;2.20;2.00;;;6.90;54.10;;;;;;5096553;28;20262;-60
2022/04/20 01:06:03;;;;;;;2.17;1.85;;;6.90;54.30;;;;;;5097867;28;20708;-59
2022/04/20 01:08:30;;;;;;;5.75;2.33;;;6.80;54.40;;;;;;5101118;28;20200;-59
2022/04/20 01:10:57;;;;;;;2.70;2.30;;;6.80;54.70;;;;;;5101991;28;20224;-59
2022/04/20 01:13:25;;;;;;;2.25;2.10;;;6.80;54.90;;;;;;5104766;28;20207;-59
2022/04/20 01:15:54;;;;;;;2.90;1.92;;;6.70;55.10;;;;;;5102073;28;20257;-60
2022/04/20 01:18:21;;;;;;;2.70;1.77;;;6.70;55.30;;;;;;5098182;28;20207;-59
2022/04/20 01:20:49;;;;;;;2.55;2.08;;;6.70;55.70;;;;;;5097213;28;20212;-59
2022/04/20 01:23:16;;;;;;;3.17;1.98;;;6.60;55.90;;;;;;5098783;28;20203;-59
2022/04/20 01:25:43;;;;;;;3.45;1.98;;;6.60;56.20;;;;;;5097749;28;20224;-60
2022/04/20 01:28:11;;;;;;;2.38;1.98;;;6.60;56.50;;;;;;5095882;28;20196;-59
2022/04/20 01:30:38;;;;;;;4.22;2.08;;;6.60;56.80;;;;;;5096028;28;20283;-59
2022/04/20 01:33:05;;;;;;;3.50;1.90;;;6.50;57.00;;;;;;5095862;28;20203;-59
2022/04/20 01:35:32;;;;;;;2.55;2.10;;;6.50;57.40;;;;;;5095634;28;20243;-60
2022/04/20 01:38:01;;;;;;;3.63;2.45;;;6.50;57.70;;;;;;5094890;28;20207;-59
2022/04/20 01:40:28;;;;;;;3.05;2.33;;;6.40;58.10;;;;;;5096038;28;20204;-59
2022/04/20 01:42:55;;;;;;;2.92;2.60;;;6.40;58.40;;;;;;5096071;28;20227;-59
2022/04/20 01:45:22;;;;;;;3.83;2.22;;;6.40;58.80;;;;;;5095789;28;20217;-60
2022/04/20 01:47:49;;;;;;;3.33;2.22;;;6.40;59.10;;;;;;5095546;28;20672;-59
2022/04/20 01:50:16;;;;;;;2.47;2.28;;;6.30;59.40;;;;;;5095310;28;20211;-59
2022/04/20 01:52:43;;;;;;;3.25;2.10;;;6.30;59.60;;;;;;5095822;28;20203;-59
2022/04/20 01:55:12;;;;;;;3.08;2.20;;;6.30;60.00;;;;;;5096271;28;20235;-60
2022/04/20 01:57:39;;;;;;;3.58;2.38;;;6.20;60.50;;;;;;5095865;28;20204;-59
2022/04/20 02:00:07;;;;;;;2.50;2.30;;;6.20;60.80;;;;;;5096268;28;20208;-60
2022/04/20 02:02:38;;;;;;;2.30;2.10;;;6.20;61.20;;;;;;5095636;28;20207;-59
2022/04/20 02:05:06;;;;;;;4.25;2.20;;;6.10;61.60;;;;;;5095480;28;20216;-60
2022/04/20 02:07:34;;;;;;;2.60;2.03;;;6.10;61.80;;;;;;5096009;28;20219;-60
2022/04/20 02:10:01;;;;;;;3.42;2.60;;;6.10;62.40;;;;;;5096010;28;20561;-59
2022/04/20 02:12:30;;;;;;;2.72;1.85;;;6.10;62.80;;;;;;5095808;28;20592;-59
2022/04/20 02:14:57;;;;;;;4.80;2.50;;;6.00;63.10;;;;;;5096285;28;20222;-59
2022/04/20 02:17:24;;;;;;;2.63;1.92;;;6.00;63.50;;;;;;5097589;28;20207;-58
2022/04/20 02:19:51;;;;;;;3.60;2.30;;;6.00;63.80;;;;;;5096448;28;20562;-59
2022/04/20 02:22:18;;;;;;;4.18;2.42;;;5.90;64.30;;;;;;5096046;28;20209;-59
2022/04/20 02:24:45;;;;;;;5.75;2.55;;;5.90;64.80;;;;;;5095666;28;20223;-60
2022/04/20 02:27:13;;;;;;;3.35;2.30;;;5.90;65.20;;;;;;5095256;28;20223;-59
2022/04/20 02:29:41;;;;;;;4.60;2.53;;;5.90;65.60;;;;;;5095120;28;20249;-59
2022/04/20 02:32:10;;;;;;;2.28;2.08;;;5.80;65.70;;;;;;5094898;28;20200;-59
2022/04/20 02:34:37;;;;;;;2.67;2.20;;;5.80;66.00;;;;;;5094494;28;20765;-59
2022/04/20 02:37:05;;;;;;;2.50;2.20;;;5.80;66.40;;;;;;5094264;28;20228;-60
2022/04/20 02:39:33;;;;;;;2.88;2.35;;;5.70;66.40;;;;;;5094433;28;20231;-60
2022/04/20 02:42:00;;;;;;;2.88;2.55;;;5.70;66.70;;;;;;5094367;28;20598;-59
2022/04/20 02:44:28;;;;;;;3.58;2.40;;;5.70;67.10;;;;;;5094465;28;20204;-60
2022/04/20 02:46:56;;;;;;;2.45;2.15;;;5.70;67.20;;;;;;5094165;28;20703;-59
2022/04/20 02:49:23;;;;;;;4.57;2.30;;;5.70;67.30;;;;;;5093375;28;20204;-60
2022/04/20 02:51:50;;;;;;;2.40;1.95;;;5.60;67.20;;;;;;5094070;28;20579;-60
2022/04/20 02:54:18;;;;;;;2.30;2.05;;;5.60;67.60;;;;;;5095252;28;20196;-59
2022/04/20 02:56:45;;;;;;;5.07;3.10;;;5.60;67.80;;;;;;5096512;28;20220;-58
2022/04/20 02:59:12;;;;;;;2.45;2.00;;;5.60;68.10;;;;;;5096303;28;20212;-60
2022/04/20 03:01:39;;;;;;;2.50;2.20;;;5.50;68.40;;;;;;5096542;28;20570;-59
2022/04/20 03:04:07;;;;;;;4.55;2.40;;;5.50;68.80;;;;;;5098888;28;20200;-59
2022/04/20 03:06:34;;;;;;;2.80;2.40;;;5.50;69.00;;;;;;5100685;28;20224;-59
2022/04/20 03:09:02;;;;;;;2.58;2.38;;;5.40;69.10;;;;;;5097494;28;20201;-59
2022/04/20 03:11:29;;;;;;;2.97;2.10;;;5.40;69.50;;;;;;5100774;28;20219;-59
2022/04/20 03:13:57;;;;;;;2.47;2.22;;;5.40;69.60;;;;;;5100433;28;20683;-59
2022/04/20 03:16:25;;;;;;;6.10;2.88;;;5.40;70.00;;;;;;5093909;28;20220;-59
2022/04/20 03:18:52;;;;;;;2.03;1.77;;;5.30;70.10;;;;;;5094409;28;20242;-60
2022/04/20 03:21:20;;;;;;;3.17;1.98;;;5.30;70.40;;;;;;5095007;28;20211;-59
2022/04/20 03:23:47;;;;;;;3.28;2.33;;;5.30;70.80;;;;;;5094368;28;20204;-60
2022/04/20 03:26:14;;;;;;;8.57;3.58;;;5.20;71.00;;;;;;5094476;28;20264;-58
2022/04/20 03:28:41;;;;;;;2.50;2.30;;;5.20;71.20;;;;;;5094710;28;20200;-60
2022/04/20 03:31:08;;;;;;;2.78;2.20;;;5.20;71.50;;;;;;5095211;28;20211;-59
2022/04/20 03:33:36;;;;;;;3.38;2.28;;;5.20;71.80;;;;;;5094943;28;20207;-59
2022/04/20 03:36:03;;;;;;;2.50;2.00;;;5.10;72.30;;;;;;5117315;22;20224;-57
2022/04/20 03:38:31;;;;;;;2.63;2.00;;;5.10;72.40;;;;;;5093458;28;20204;-55
2022/04/20 03:40:59;;;;;;;3.75;2.67;;;5.10;72.50;;;;;;5093537;28;20204;-56
2022/04/20 03:43:26;;;;;;;3.55;2.80;;;5.10;72.60;;;;;;5093641;28;20206;-56
2022/04/20 03:45:53;;;;;;;5.40;2.67;;;5.10;72.70;;;;;;5093547;28;20224;-56
2022/04/20 03:48:20;;;;;;;10.73;3.30;;;5.10;73.00;;;;;;5093572;28;20200;-56
2022/04/20 03:50:47;;;;;;;4.47;3.00;;;5.00;73.50;;;;;;5093470;28;20207;-56
2022/04/20 03:53:14;;;;;;;3.38;2.50;;;5.00;73.90;;;;;;5093326;28;20203;-56
2022/04/20 03:55:43;;;;;;;4.55;2.60;;;4.90;74.30;;;;;;5093487;28;20232;-56
2022/04/20 03:58:10;;;;;;;2.65;2.30;;;4.90;74.50;;;;;;5093255;28;20204;-56
2022/04/20 04:00:37;;;;;;;3.97;2.88;;;4.80;74.90;;;;;;5093498;28;20215;-55
2022/04/20 04:03:04;;;;;;;2.97;2.63;;;4.90;75.40;;;;;;5096184;28;20200;-56
2022/04/20 04:05:32;;;;;;;2.58;2.20;;;4.90;76.00;;;;;;5094272;28;20216;-56
2022/04/20 04:09:38;;;;;;;3.80;2.60;;;4.80;75.70;;;;;;5169187;27;20579;-57
2022/04/20 04:12:06;;;;;;;9.77;3.88;;;4.80;76.70;;;;;;5152641;27;20264;-56
2022/04/20 04:14:37;;;;;;;3.05;2.30;;;4.80;76.00;;;;;;5152368;27;20202;-55
2022/04/20 04:17:04;;;;;;;3.92;2.70;;;4.80;76.40;;;;;;5152743;27;20225;-55
2022/04/20 04:19:31;;;;;;;2.67;2.47;;;4.80;76.60;;;;;;5152335;27;20657;-56
2022/04/20 04:21:58;;;;;;;4.30;3.13;;;4.80;76.90;;;;;;5152459;27;20677;-55
2022/04/20 04:24:39;;;;;;;2.63;2.42;;;4.70;77.20;;;;;;5152825;27;20205;-56
2022/04/20 04:27:09;;;;;;;4.47;3.05;;;4.80;77.50;;;;;;5151876;27;20310;-56
2022/04/20 04:29:37;;;;;;;3.13;2.83;;;4.80;77.60;;;;;;5152465;27;20210;-57
2022/04/20 04:32:05;;;;;;;4.35;2.50;;;4.80;77.80;;;;;;5152318;27;20206;-57
2022/04/20 04:34:33;;;;;;;2.90;2.70;;;4.90;77.70;;;;;;5152475;27;20198;-58
2022/04/20 04:37:00;;;;;;;4.18;2.72;;;4.90;77.80;;;;;;5151748;27;20704;-56
2022/04/20 04:39:29;;;;;;;3.45;2.80;;;4.90;77.90;;;;;;5151441;27;20202;-56
2022/04/20 04:42:00;;;;;;;4.45;2.80;;;5.00;77.80;;;;;;5152115;27;20636;-56
2022/04/20 04:44:32;;;;;;;4.88;2.60;;;5.10;77.50;;;;;;5152007;27;20438;-54
2022/04/20 04:49:43;;;;;;;3.40;2.40;;;5.10;77.70;;;;;;5154127;27;20233;-55
2022/04/20 04:52:12;;;;;;;6.13;3.33;;;5.10;77.50;;;;;;5154123;27;20206;-54
2022/04/20 04:54:42;;;;;;;4.65;2.60;;;5.10;77.70;;;;;;5153819;27;20321;-55
2022/04/20 04:57:11;;;;;;;5.95;3.03;;;5.00;77.70;;;;;;5153224;27;20229;-55
2022/04/20 04:59:40;;;;;;;5.70;3.10;;;5.00;77.80;;;;;;5151099;27;20444;-60
2022/04/20 05:02:08;;;;;;;4.20;3.22;;;5.10;78.70;;;;;;5151645;27;20202;-57
2022/04/20 05:04:36;;;;;;;3.33;3.03;;;5.10;79.10;;;;;;5150863;27;20203;-57
2022/04/20 05:07:03;;;;;;;7.18;3.22;;;5.20;78.90;;;;;;5151213;27;20223;-59
2022/04/20 05:09:30;;;;;;;4.45;3.33;;;5.20;78.50;;;;;;5150895;27;20230;-58
2022/04/20 05:11:58;;;;;;;4.30;2.50;;;5.20;78.40;;;;;;5151602;27;20210;-57
2022/04/20 05:14:25;;;;;;;5.10;3.10;;;5.20;78.40;;;;;;5150833;27;20203;-57
2022/04/20 05:16:55;;;;;;;4.28;3.25;;;5.30;78.40;;;;;;5150460;27;20720;-60
2022/04/20 05:19:22;;;;;;;5.68;3.00;;;5.40;78.00;;;;;;5145961;27;20635;-59
2022/04/20 05:21:49;;;;;;;2.67;2.47;;;5.50;77.70;;;;;;5137656;27;20203;-59
2022/04/20 05:24:16;;;;;;;5.22;3.10;;;5.50;77.40;;;;;;5136515;27;20206;-59
2022/04/20 05:26:43;;;;;;;6.47;3.58;;;5.60;77.00;;;;;;5136918;27;20222;-59
2022/04/20 05:29:12;;;;;;;3.67;2.42;;;5.60;76.70;;;;;;5137118;27;20219;-60
2022/04/20 05:31:39;;;;;;;3.92;2.80;;;5.70;76.40;;;;;;5136740;27;20221;-58
2022/04/20 05:34:07;;;;;;;8.07;5.15;;;5.70;76.00;;;;;;5136740;27;20255;-59
2022/04/20 05:42:00;;;;;;;3.85;3.13;;;5.80;75.40;;;;;;5136247;27;20735;-57
2022/04/20 05:44:27;;;;;;;3.65;3.17;;;5.80;75.10;;;;;;5136061;27;20206;-58
2022/04/20 05:46:54;;;;;;;4.15;3.15;;;5.80;74.80;;;;;;5136205;27;20215;-58
2022/04/20 05:49:22;;;;;;;3.20;2.90;;;5.80;74.80;;;;;;5135971;27;20717;-58
2022/04/20 05:51:49;;;;;;;4.65;3.30;;;5.80;74.50;;;;;;5136173;27;20256;-58
2022/04/20 05:54:16;;;;;;;5.45;3.60;;;5.80;74.50;;;;;;5136043;27;20199;-60
2022/04/20 05:56:43;;;;;;;3.85;3.42;;;5.90;74.50;;;;;;5136104;27;20226;-60
2022/04/20 05:59:10;;;;;;;7.63;3.90;;;5.90;74.40;;;;;;5135996;27;20191;-60
2022/04/20 06:01:37;;;;;;;4.75;2.88;;;5.90;74.50;;;;;;5136400;27;20206;-58
2022/04/20 06:04:05;;;;;;;3.72;3.33;;;6.00;74.50;;;;;;5136193;27;20198;-57
2022/04/20 06:06:33;;;;;;;4.53;2.97;;;6.10;74.30;;;;;;5135882;27;20246;-57
2022/04/20 06:09:01;;;;;;;12.15;3.35;;;6.20;73.80;;;;;;5135680;27;20246;-57
2022/04/20 06:11:30;;;;;;;5.45;3.40;;;6.30;73.40;;;;;;5135920;27;20231;-58
2022/04/20 06:13:57;;;;;;;6.47;3.28;;;6.30;72.80;;;;;;5135866;27;20271;-58
2022/04/20 06:16:24;;;;;;;4.40;3.10;;;6.40;72.50;;;;;;5135926;27;20226;-57
2022/04/20 06:18:52;;;;;;;6.10;3.00;;;6.50;72.20;;;;;;5135695;27;20202;-58
2022/04/20 06:21:19;;;;;;;5.63;3.30;;;6.60;71.70;;;;;;5135921;27;20207;-57
2022/04/20 06:23:47;;;;;;;4.30;3.50;;;6.70;71.40;;;;;;5135587;27;20199;-59
2022/04/20 06:26:15;;;;;;;4.85;3.75;;;6.70;71.20;;;;;;5135864;27;20226;-58
2022/04/20 06:28:42;;;;;;;3.83;3.03;;;6.90;71.00;;;;;;5135636;27;20716;-58
2022/04/20 06:31:09;;;;;;;5.82;3.60;;;7.00;70.30;;;;;;5134568;27;20199;-58
2022/04/20 06:33:36;;;;;;;5.95;3.50;;;7.20;69.60;;;;;;5135355;27;20194;-60
2022/04/20 06:36:03;;;;;;;8.27;3.58;;;7.30;69.30;;;;;;5134415;27;20223;-59
2022/04/20 06:38:30;;;;;;;5.10;3.50;;;7.50;68.60;;;;;;5135321;27;20198;-58
2022/04/20 06:40:59;;;;;;;6.82;3.95;;;7.60;67.70;;;;;;5135348;27;20572;-59
2022/04/20 06:43:26;;;;;;;5.07;3.13;;;7.80;67.00;;;;;;5135237;27;20230;-59
2022/04/20 06:45:54;;;;;;;5.03;3.30;;;8.10;66.30;;;;;;5135482;27;20230;-59
2022/04/20 06:48:22;;;;;;;7.15;4.22;;;8.30;65.20;;;;;;5135070;27;20646;-59
2022/04/20 06:50:49;;;;;;;5.65;3.25;;;8.40;64.00;;;;;;5135229;27;20658;-59
2022/04/20 06:58:48;;;;;;;4.35;3.50;;;8.70;62.40;;;;;;5135265;27;20633;-59
2022/04/20 07:01:15;;;;;;;4.30;3.85;;;8.90;61.30;;;;;;5135258;27;20552;-59
2022/04/20 07:03:43;;;;;;;4.70;3.90;;;9.00;60.80;;;;;;5134978;27;20202;-58
2022/04/20 07:06:10;;;;;;;6.35;4.32;;;9.10;60.30;;;;;;5135113;27;20233;-59
2022/04/20 07:08:37;;;;;;;4.35;3.40;;;9.20;59.90;;;;;;5134575;27;20223;-59
2022/04/20 07:11:06;;;;;;;7.53;5.00;;;9.40;59.60;;;;;;5134819;27;20575;-59
2022/04/20 07:13:33;;;;;;;4.07;3.67;;;9.50;59.00;;;;;;5134758;27;20440;-59
2022/04/20 07:16:01;;;;;;;4.50;3.55;;;9.70;58.60;;;;;;5134983;27;20467;-59
2022/04/20 07:18:28;;;;;;;5.63;3.70;;;9.90;58.30;;;;;;5134600;27;20226;-59
2022/04/20 07:20:55;;;;;;;5.20;3.77;;;10.10;56.90;;;;;;5134731;27;20463;-59
2022/04/20 07:23:22;;;;;;;5.03;3.70;;;10.40;56.10;;;;;;5134681;27;20448;-58
2022/04/20 07:25:49;;;;;;;8.80;3.77;;;10.60;55.40;;;;;;5134789;27;20475;-58
2022/04/20 07:28:17;;;;;;;4.77;3.33;;;10.70;54.90;;;;;;5134353;27;20453;-58
2022/04/20 07:30:44;;;;;;;7.43;4.10;;;10.90;54.60;;;;;;5134730;27;20453;-58
2022/04/20 07:33:15;;;;;;;7.80;3.67;;;11.10;54.00;;;;;;5134646;27;20441;-58
2022/04/20 07:35:44;;;;;;;3.83;2.90;;;11.30;53.30;;;;;;5134440;27;20495;-58
2022/04/20 07:38:11;;;;;;;5.13;3.80;;;11.40;52.50;;;;;;5134336;27;20445;-59
2022/04/20 07:40:38;;;;;;;3.53;3.23;;;11.30;52.10;;;;;;5134308;27;20447;-58
2022/04/20 07:43:05;;;;;;;5.80;4.07;;;11.20;52.10;;;;;;5134347;27;20447;-58
2022/04/20 07:45:34;;;;;;;5.63;3.23;;;11.20;52.30;;;;;;5134213;27;20982;-58
2022/04/20 07:48:01;;;;;;;5.40;3.63;;;11.10;52.10;;;;;;5134359;27;20464;-58
2022/04/20 07:50:28;;;;;;;4.40;3.20;;;11.00;52.20;;;;;;5134066;27;20991;-58
2022/04/20 07:52:57;;;;;;;5.87;3.90;;;11.00;52.30;;;;;;5134330;27;20956;-58
2022/04/20 07:55:25;;;;;;;4.93;3.33;;;11.00;52.40;;;;;;5134027;27;20919;-58
2022/04/20 07:57:55;;;;;;;4.70;3.33;;;11.10;52.30;;;;;;5134614;27;20448;-58
2022/04/20 08:00:23;;;;;;;11.23;4.67;;;11.20;52.00;;;;;;5134318;27;20444;-59
2022/04/20 08:02:52;;;;;;;5.10;3.87;;;11.30;51.70;;;;;;5133737;27;20491;-58
2022/04/20 08:05:20;;;;;;;4.87;3.30;;;11.40;51.50;;;;;;5133777;27;20441;-59
2022/04/20 08:07:47;;;;;;;4.83;3.70;;;11.50;51.20;;;;;;5133879;28;20501;-58
2022/04/20 08:10:15;;;;;;;5.33;3.90;;;11.70;50.80;;;;;;5134014;28;20460;-59
2022/04/20 08:12:44;;;;;;;6.03;3.70;;;11.80;50.30;;;;;;5134412;27;20472;-58
2022/04/20 08:15:12;;;;;;;3.70;3.17;;;11.90;50.10;;;;;;5133782;28;20521;-58
2022/04/20 08:17:40;;;;;;;5.90;3.77;;;12.00;49.80;;;;;;5134681;28;20449;-58
2022/04/20 08:20:10;;;;;;;6.83;3.63;;;12.20;49.40;;;;;;5134039;28;20445;-58
2022/04/20 08:22:42;;;;;;;4.00;3.47;;;12.10;48.90;;;;;;5134037;28;20440;-58
2022/04/20 08:25:10;;;;;;;4.90;3.63;;;12.20;49.10;;;;;;5133937;28;20452;-58
2022/04/20 08:27:37;;;;;;;6.43;4.57;;;12.30;48.70;;;;;;5133763;28;20447;-58
2022/04/20 08:30:05;;;;;;;4.43;3.60;;;12.30;48.60;;;;;;5133631;27;20488;-59
2022/04/20 08:32:32;;;;;;;3.43;3.13;;;12.20;48.60;;;;;;5133581;28;20470;-58
2022/04/20 08:34:59;;;;;;;4.63;3.60;;;12.20;48.80;;;;;;5134064;27;20447;-59
2022/04/20 08:37:28;;;;;;;3.70;3.40;;;12.40;48.80;;;;;;5134561;27;20475;-58
2022/04/20 08:39:55;;;;;;;5.30;4.10;;;12.50;48.60;;;;;;5134079;28;20441;-58
2022/04/20 08:42:22;;;;;;;4.00;3.40;;;12.60;48.40;;;;;;5133860;27;20441;-59
2022/04/20 08:44:51;;;;;;;4.67;4.27;;;12.60;48.30;;;;;;5133741;28;20444;-58
2022/04/20 08:47:21;;;;;;;6.43;3.57;;;12.60;48.40;;;;;;5133912;27;20499;-58
2022/04/20 08:49:50;;;;;;;4.40;3.90;;;12.60;48.60;;;;;;5133765;28;20471;-58
2022/04/20 08:55:05;;;;;;;5.40;3.93;;;12.70;48.30;;;;;;5135983;27;20412;-59
2022/04/20 08:57:34;;;;;;;4.40;3.20;;;12.90;47.40;;;;;;5137852;27;20464;-59
2022/04/20 09:00:02;;;;;;;3.93;3.40;;;12.90;46.90;;;;;;5137381;27;20944;-60
2022/04/20 09:02:30;;;;;;;3.60;3.03;;;12.90;46.60;;;;;;5137591;27;20449;-59
2022/04/20 09:04:57;;;;;;;3.40;3.10;;;12.90;46.50;;;;;;5137239;27;20501;-58
2022/04/20 09:07:25;;;;;;;5.00;3.53;;;12.90;46.40;;;;;;5137019;27;20592;-58
2022/04/20 09:09:52;;;;;;;4.40;3.20;;;13.10;46.10;;;;;;5137222;27;20511;-59
2022/04/20 09:12:23;;;;;;;3.00;2.70;;;13.30;45.30;;;;;;5137115;27;20451;-61
2022/04/20 09:14:53;;;;;;;5.63;3.50;;;13.40;44.70;;;;;;5137510;27;20612;-59
2022/04/20 09:17:22;;;;;;;5.17;3.63;;;13.50;44.30;;;;;;5138544;27;20460;-60
2022/04/20 09:19:52;;;;;;;4.60;3.10;;;13.50;44.10;;;;;;5138579;27;20441;-60
2022/04/20 09:22:21;;;;;;;3.87;2.93;;;13.60;44.10;;;;;;5139031;27;20505;-59
2022/04/20 09:25:00;;;;;;;3.83;3.53;;;13.70;44.10;;;;;;5138607;27;20816;-60
2022/04/20 09:27:30;;;;;;;5.03;3.43;;;13.80;44.10;;;;;;5138635;27;20476;-59
2022/04/20 09:29:57;;;;;;;8.30;3.37;;;13.70;44.80;;;;;;5138782;27;21056;-61
2022/04/20 09:32:32;;;;;;;13.40;4.00;;;13.80;44.50;;;;;;5137479;27;20445;-60
2022/04/20 09:34:59;;;;;;;3.33;3.03;;;14.00;44.50;;;;;;5136098;27;20856;-60
2022/04/20 09:37:27;;;;;;;7.13;3.23;;;14.10;44.30;;;;;;5116793;22;20518;-60
2022/04/20 09:39:54;;;;;;;3.57;3.03;;;14.10;44.20;;;;;;5075961;28;20442;-61
2022/04/20 09:42:22;;;;;;;3.53;3.20;;;14.20;44.00;;;;;;5075309;28;20447;-60
2022/04/20 09:45:01;;;;;;;4.57;3.27;;;14.10;44.10;;;;;;5075205;28;20442;-60
2022/04/20 09:50:19;;;;;;;4.80;3.83;;;14.30;43.80;;;;;;5075830;28;20545;-61
2022/04/20 09:52:48;;;;;;;5.03;3.23;;;14.30;43.70;;;;;;5075370;28;20431;-60
2022/04/20 09:55:18;;;;;;;3.57;2.80;;;14.40;43.70;;;;;;5075138;28;20478;-59
2022/04/20 09:57:45;;;;;;;2.80;2.50;;;14.50;43.60;;;;;;5074268;28;20486;-59
2022/04/20 10:00:15;;;;;;;3.10;2.80;;;14.70;43.60;;;;;;5074954;28;20534;-60
2022/04/20 10:02:47;;;;;;;3.37;3.07;;;14.70;43.20;;;;;;5074434;28;20448;-60
2022/04/20 10:05:15;;;;;;;5.43;3.43;;;14.80;42.70;;;;;;5075096;28;20451;-59
2022/04/20 10:07:42;;;;;;;2.57;2.37;;;14.80;42.50;;;;;;5075734;28;20459;-60
2022/04/20 10:10:10;;;;;;;3.83;3.43;;;14.90;42.50;;;;;;5074492;28;20483;-60
2022/04/20 10:12:39;;;;;;;6.77;3.57;;;15.10;42.50;;;;;;5074397;28;20498;-60
2022/04/20 10:17:56;;;;;;;4.40;3.27;;;15.50;41.90;;;;;;5075945;28;20443;-59
2022/04/20 10:20:26;;;;;;;3.73;3.43;;;15.50;41.80;;;;;;5075569;28;20527;-58
2022/04/20 10:22:54;;;;;;;5.93;3.60;;;15.40;42.00;;;;;;5076442;28;20501;-60
2022/04/20 10:25:22;;;;;;;3.93;3.50;;;15.40;42.10;;;;;;5076990;28;20452;-59
2022/04/20 10:27:59;;;;;;;4.77;3.70;;;15.20;42.30;;;;;;5076074;28;20470;-59
2022/04/20 10:30:38;;;;;;;4.30;3.90;;;15.00;42.60;;;;;;5074229;28;20471;-60
2022/04/20 10:33:10;;;;;;;5.07;4.03;;;15.10;42.90;;;;;;5074331;28;20435;-59
2022/04/20 10:35:57;;;;;;;6.70;3.80;;;15.10;42.80;;;;;;5074382;28;20489;-60
2022/04/20 10:38:25;;;;;;;4.20;3.80;;;15.20;43.10;;;;;;5074633;28;20430;-60
2022/04/20 10:40:57;;;;;;;4.90;4.03;;;15.40;43.10;;;;;;5074662;28;20474;-60
2022/04/20 10:43:25;;;;;;;4.53;3.90;;;15.60;42.90;;;;;;5074554;28;20443;-60
2022/04/20 10:46:07;;;;;;;4.50;3.73;;;15.80;42.60;;;;;;5074137;28;20958;-61
2022/04/20 10:48:47;;;;;;;7.27;4.40;;;15.90;42.40;;;;;;5075026;28;20742;-59
2022/04/20 10:51:16;;;;;;;6.90;3.60;;;16.00;42.30;;;;;;5074078;28;20514;-60
2022/04/20 10:53:45;;;;;;;4.40;3.47;;;16.10;42.10;;;;;;5074051;28;20479;-60
2022/04/20 10:56:13;;;;;;;7.93;3.80;;;16.10;42.20;;;;;;5073777;28;20844;-60
2022/04/20 10:58:52;;;;;;;4.40;3.50;;;16.00;42.30;;;;;;5073958;28;20938;-60
2022/04/20 11:01:20;;;;;;;4.53;3.67;;;16.10;42.20;;;;;;5073711;28;20808;-60
2022/04/20 11:04:05;;;;;;;3.97;3.57;;;16.10;42.20;;;;;;5073717;28;20444;-60
2022/04/20 11:07:06;;;;;;;4.23;3.70;;;16.20;42.20;;;;;;5073846;28;20495;-60
2022/04/20 11:10:07;;;;;;;4.90;3.97;;;16.30;42.00;;;;;;5073653;28;20496;-58
2022/04/20 11:18:42;;;;;;;3.80;3.50;;;16.20;41.60;;;;;;5073316;28;20403;-59
2022/04/20 11:21:19;;;;;;;4.23;3.47;;;16.10;41.50;;;;;;5073763;28;20427;-59
2022/04/20 11:23:59;;;;;;;3.37;2.90;;;16.00;41.70;;;;;;5073229;28;20838;-58
2022/04/20 11:26:28;;;;;;;6.67;4.20;;;16.10;41.90;;;;;;5073120;28;20462;-60
2022/04/20 11:28:57;;;;;;;3.40;3.10;;;16.30;41.70;;;;;;5073498;28;20498;-59
2022/04/20 11:31:25;;;;;;;4.13;2.80;;;16.60;41.50;;;;;;5072976;28;21022;-60
2022/04/20 11:33:53;;;;;;;5.70;3.80;;;16.70;40.90;;;;;;5073091;28;20452;-59
2022/04/20 11:36:22;;;;;;;5.10;3.70;;;16.80;40.80;;;;;;5073369;28;20539;-60
2022/04/20 11:38:50;;;;;;;3.87;3.50;;;17.00;40.70;;;;;;5073184;28;20936;-59
2022/04/20 11:41:22;;;;;;;4.63;3.50;;;17.20;40.70;;;;;;5073177;28;20444;-60
2022/04/20 11:43:50;;;;;;;5.33;4.40;;;17.40;40.40;;;;;;5073436;28;20798;-59
2022/04/20 11:46:20;;;;;;;3.70;3.30;;;17.60;40.00;;;;;;5073288;28;20521;-60
2022/04/20 11:48:52;;;;;;;7.07;3.70;;;18.10;39.60;;;;;;5073167;28;20452;-60
2022/04/20 11:51:31;;;;;;;10.93;3.30;;;18.60;38.50;;;;;;5073640;28;20485;-60
2022/04/20 11:53:58;;;;;;;5.87;3.30;;;19.00;37.60;;;;;;5073372;28;20438;-59
2022/04/20 11:56:39;;;;;;;3.67;3.23;;;19.20;37.10;;;;;;5073193;28;20467;-60
2022/04/20 11:59:09;;;;;;;5.03;3.73;;;19.60;36.70;;;;;;5074110;28;20802;-60
2022/04/20 12:01:38;;;;;;;6.43;3.20;;;19.80;36.30;;;;;;5073123;28;21000;-61
2022/04/20 12:04:12;;;;;;;5.67;4.00;;;19.80;36.00;;;;;;5073578;28;20457;-59
2022/04/20 12:06:52;;;;;;;5.50;3.47;;;20.00;35.70;;;;;;5072932;28;21059;-59
2022/04/20 12:09:22;;;;;;;3.20;2.90;;;19.90;35.50;;;;;;5073300;28;20474;-60
2022/04/20 12:11:52;;;;;;;3.40;3.10;;;20.00;35.60;;;;;;5073540;28;20578;-59
2022/04/20 12:14:19;;;;;;;3.20;2.73;;;19.90;35.30;;;;;;5073525;28;20454;-61
2022/04/20 12:16:47;;;;;;;4.17;3.30;;;19.30;35.60;;;;;;5074811;28;20469;-60
2022/04/20 12:19:14;;;;;;;3.70;2.90;;;18.60;36.40;;;;;;5075677;28;20453;-60
2022/04/20 12:21:47;;;;;;;4.50;3.23;;;18.10;37.10;;;;;;5075915;28;20473;-60
2022/04/20 12:24:21;;;;;;;4.43;3.40;;;17.90;37.40;;;;;;5075339;28;20880;-61
2022/04/20 12:26:50;;;;;;;7.20;3.13;;;17.90;37.60;;;;;;5074400;28;20522;-61
2022/04/20 12:29:20;;;;;;;3.40;3.07;;;18.10;37.50;;;;;;5075639;28;20446;-60
2022/04/20 12:31:49;;;;;;;4.17;3.40;;;18.30;36.90;;;;;;5079302;28;20486;-60
2022/04/20 12:34:17;;;;;;;4.13;2.90;;;18.40;36.30;;;;;;5078124;28;20450;-60
2022/04/20 12:36:53;;;;;;;4.00;3.33;;;18.50;35.80;;;;;;5076940;28;20505;-61
2022/04/20 12:39:25;;;;;;;3.80;2.60;;;18.50;35.60;;;;;;5076728;28;21020;-60
2022/04/20 12:41:54;;;;;;;3.40;2.53;;;18.60;35.40;;;;;;5076564;28;20442;-60
2022/04/20 12:44:52;;;;;;;4.83;2.80;;;18.60;35.40;;;;;;5076287;28;20450;-60
2022/04/20 12:47:40;;;;;;;4.20;2.47;;;18.70;35.40;;;;;;5075881;28;20497;-60
2022/04/20 12:50:35;;;;;;;3.33;2.20;;;18.70;34.80;;;;;;5076619;28;20592;-58
2022/04/20 12:53:04;;;;;;;5.10;2.23;;;18.50;34.50;;;;;;5078028;28;20427;-59
2022/04/20 12:55:43;;;;;;;4.80;1.80;;;18.50;34.80;;;;;;5078759;28;20442;-59
2022/04/20 13:03:45;;;;;;;3.53;1.80;;;18.30;32.50;;;;;;5076225;28;20966;-58
2022/04/20 13:06:13;;;;;;;2.87;1.83;;;18.20;32.40;;;;;;5076889;28;20498;-61
2022/04/20 13:08:45;;;;;;;2.23;2.03;;;18.10;32.30;;;;;;5076872;28;20443;-59
2022/04/20 13:11:13;;;;;;;5.77;2.30;;;18.10;32.60;;;;;;5076506;28;20528;-60
2022/04/20 13:13:40;;;;;;;3.47;2.20;;;18.10;32.70;;;;;;5076122;28;20453;-61
2022/04/20 13:16:10;;;;;;;4.67;2.23;;;18.00;32.60;;;;;;5076277;28;20469;-60
2022/04/20 13:18:38;;;;;;;5.07;2.00;;;17.80;32.30;;;;;;5076931;28;20457;-61
2022/04/20 13:21:06;;;;;;;2.70;2.07;;;17.60;32.20;;;;;;5075999;28;20964;-60
2022/04/20 13:23:33;;;;;;;2.60;2.00;;;17.40;32.30;;;;;;5075657;28;20445;-59
2022/04/20 13:28:48;;;;;;;2.00;1.70;;;17.90;32.10;;;;;;5075859;28;20491;-60
2022/04/20 13:31:16;;;;;;;4.03;1.70;;;18.40;31.60;;;;;;5075592;28;20487;-59
2022/04/20 13:33:43;;;;;;;6.27;1.70;;;18.70;30.90;;;;;;5075343;28;20521;-61
2022/04/20 13:36:10;;;;;;;2.47;1.23;;;18.80;29.80;;;;;;5075322;28;20498;-59
2022/04/20 13:38:37;;;;;;;3.60;1.30;;;18.50;29.60;;;;;;5075984;28;20428;-59
2022/04/20 13:41:07;;;;;;;2.37;1.20;;;18.40;29.60;;;;;;5075332;28;20442;-59